Time;durP1;ratioP1;P1;durP2;ratioP2;P2;SDS_P1;SDS_P2;PMS_P1;PMS_P2;Temp;Humidity;BMP_temperature;BMP_pressure;BME280_temperature;BME280_humidity;BME280_pressure;Samples;Min_cycle;Max_cycle;Signal;HPM_P1;HPM_P2
2022/03/26 00:00:45;;;;;;;24.00;10.00;;;;;;;6.14;42.89;99782.98;25190;1315;3055258;-67
2022/03/26 00:03:17;;;;;;;19.70;9.90;;;;;;;6.13;43.11;99775.02;25116;1315;3026431;-67
2022/03/26 00:05:46;;;;;;;26.40;12.30;;;;;;;6.08;42.96;99772.80;25118;1315;3026834;-62
2022/03/26 00:08:16;;;;;;;24.20;11.30;;;;;;;6.07;42.71;99771.45;25103;1315;3058314;-65
2022/03/26 00:11:04;;;;;;;21.40;9.80;;;;;;;6.12;42.16;99762.21;25097;1315;3048624;-64
2022/03/26 00:13:34;;;;;;;27.20;11.30;;;;;;;6.13;41.87;99764.09;25129;1315;3026280;-68
2022/03/26 00:16:23;;;;;;;21.60;11.40;;;;;;;6.11;41.49;99762.22;25045;1315;3051645;-66
2022/03/26 00:18:52;;;;;;;22.20;10.10;;;;;;;6.13;41.61;99763.73;25108;1315;3026760;-64
2022/03/26 00:21:42;;;;;;;24.80;11.20;;;;;;;6.17;41.45;99760.29;25036;1315;3049234;-67
2022/03/26 00:24:11;;;;;;;23.00;10.50;;;;;;;6.09;42.20;99760.05;25160;1315;3026481;-67
2022/03/26 00:26:40;;;;;;;26.30;11.50;;;;;;;6.08;42.31;99763.56;24689;1315;3615938;-65
2022/03/26 00:29:10;;;;;;;34.30;11.80;;;;;;;6.04;42.44;99758.67;25130;1316;3048549;-65
2022/03/26 00:31:40;;;;;;;21.70;10.50;;;;;;;6.01;42.34;99755.46;25137;1315;3027067;-65
2022/03/26 00:34:10;;;;;;;23.10;10.40;;;;;;;5.96;42.10;99758.06;25180;1314;3027179;-63
2022/03/26 00:36:39;;;;;;;22.30;9.70;;;;;;;5.96;41.94;99757.73;25796;1315;3026703;-66
2022/03/26 00:39:08;;;;;;;30.20;12.20;;;;;;;5.94;41.68;99757.27;25824;1315;3051722;-64
2022/03/26 00:41:40;;;;;;;23.00;10.60;;;;;;;5.97;41.51;99760.48;25598;1315;3026632;-65
2022/03/26 00:44:09;;;;;;;18.70;9.40;;;;;;;5.93;40.70;99756.78;25128;1315;3026447;-68
2022/03/26 00:46:38;;;;;;;23.10;10.70;;;;;;;6.01;40.39;99757.19;25130;1315;3053274;-66
2022/03/26 00:49:08;;;;;;;23.50;10.00;;;;;;;5.97;40.92;99763.95;25091;1317;3026338;-63
2022/03/26 00:51:38;;;;;;;20.80;10.40;;;;;;;5.93;41.92;99767.05;25155;1315;3052080;-63
2022/03/26 00:54:11;;;;;;;26.70;12.10;;;;;;;5.75;43.45;99761.92;25141;1315;3026648;-65
2022/03/26 00:56:41;;;;;;;25.80;11.40;;;;;;;5.78;43.40;99761.48;25137;1315;3069336;-65
2022/03/26 00:59:10;;;;;;;27.60;12.00;;;;;;;5.75;44.04;99759.86;25148;1315;3026149;-65
2022/03/26 01:01:39;;;;;;;18.20;9.80;;;;;;;5.64;44.85;99765.46;25065;1315;3028480;-65
2022/03/26 01:04:08;;;;;;;30.10;12.30;;;;;;;5.63;45.06;99764.31;25111;1315;3068382;-66
2022/03/26 01:06:38;;;;;;;24.10;11.70;;;;;;;5.59;45.29;99761.29;25098;1315;3026883;-65
2022/03/26 01:09:07;;;;;;;28.10;10.70;;;;;;;5.53;45.60;99764.96;25148;1315;3026140;-65
2022/03/26 01:11:37;;;;;;;25.50;11.30;;;;;;;5.47;45.78;99763.81;25167;1315;3027002;-66
2022/03/26 01:14:06;;;;;;;19.80;11.10;;;;;;;5.39;46.26;99763.91;25102;1315;3026861;-66
2022/03/26 01:16:35;;;;;;;33.70;13.90;;;;;;;5.31;46.43;99764.18;25087;1315;3055014;-67
2022/03/26 01:19:05;;;;;;;30.40;11.70;;;;;;;5.28;46.74;99761.84;25141;1315;3028538;-66
2022/03/26 01:21:34;;;;;;;27.80;12.90;;;;;;;5.14;47.76;99762.14;25130;1314;3026468;-67
2022/03/26 01:24:05;;;;;;;31.80;13.90;;;;;;;5.13;48.15;99761.83;25117;1315;3051278;-66
2022/03/26 01:26:35;;;;;;;26.00;14.20;;;;;;;5.15;48.27;99757.43;25126;1315;3026390;-67
2022/03/26 01:29:04;;;;;;;30.40;13.00;;;;;;;5.12;48.31;99761.85;25123;1315;3026444;-63
2022/03/26 01:31:34;;;;;;;31.20;13.40;;;;;;;5.07;47.79;99756.81;25136;1315;3052305;-66
2022/03/26 01:34:03;;;;;;;30.40;13.20;;;;;;;5.11;46.96;99756.85;25191;1315;3026786;-66
2022/03/26 01:36:32;;;;;;;28.10;13.40;;;;;;;5.10;47.19;99762.80;25116;1315;3048733;-65
2022/03/26 01:39:01;;;;;;;27.10;14.30;;;;;;;5.15;45.69;99757.77;25155;1315;3026910;-66
2022/03/26 01:41:30;;;;;;;31.90;14.10;;;;;;;5.18;45.73;99758.02;25115;1315;3070873;-68
2022/03/26 01:44:00;;;;;;;28.70;13.00;;;;;;;5.28;46.07;99755.95;25153;1315;3027209;-64
2022/03/26 01:46:46;;;;;;;27.50;13.10;;;;;;;5.25;47.29;99755.52;25157;1315;3053687;-65
2022/03/26 01:49:15;;;;;;;32.10;14.50;;;;;;;5.28;47.89;99749.89;25144;1315;3071872;-66
2022/03/26 01:51:44;;;;;;;34.70;13.10;;;;;;;5.28;48.29;99753.50;25111;1315;3026377;-68
2022/03/26 01:54:14;;;;;;;29.30;13.20;;;;;;;5.24;49.45;99749.66;25148;1315;3052707;-69
2022/03/26 01:56:43;;;;;;;24.70;14.00;;;;;;;5.23;49.53;99750.91;25135;1315;3026573;-64
2022/03/26 01:59:14;;;;;;;24.60;13.20;;;;;;;5.28;50.00;99753.34;25155;1315;3027289;-68
2022/03/26 02:01:43;;;;;;;24.00;13.60;;;;;;;5.33;50.32;99752.48;25155;1315;3026984;-64
2022/03/26 02:04:12;;;;;;;24.60;12.50;;;;;;;5.29;51.44;99747.06;25160;1314;3068006;-65
2022/03/26 02:06:42;;;;;;;24.20;13.50;;;;;;;5.37;50.87;99743.30;25186;1315;3026382;-63
2022/03/26 02:09:35;;;;;;;37.70;15.80;;;;;;;5.39;51.89;99747.91;25168;1315;3052506;-67
2022/03/26 02:12:27;;;;;;;32.20;16.40;;;;;;;5.37;52.07;99742.94;25143;1315;3054346;-66
2022/03/26 02:15:01;;;;;;;33.70;15.10;;;;;;;5.37;52.84;99743.46;25173;1315;3059311;-65
2022/03/26 02:17:31;;;;;;;33.70;15.00;;;;;;;5.43;53.05;99744.13;25122;1315;3028450;-67
2022/03/26 02:20:04;;;;;;;30.60;14.80;;;;;;;5.48;53.69;99740.84;25175;1315;3028276;-66
2022/03/26 02:22:33;;;;;;;35.70;15.30;;;;;;;5.48;54.48;99736.48;25199;1315;3026701;-65
2022/03/26 02:25:06;;;;;;;34.80;15.10;;;;;;;5.47;53.97;99742.42;25174;1315;3028324;-66
2022/03/26 02:27:36;;;;;;;23.70;13.70;;;;;;;5.39;53.96;99743.05;25158;1315;3028786;-65
2022/03/26 02:30:06;;;;;;;30.10;15.70;;;;;;;5.33;53.68;99746.37;25145;1315;3026993;-66
2022/03/26 02:32:35;;;;;;;31.70;14.90;;;;;;;5.22;53.81;99748.34;25156;1314;3069230;-67
2022/03/26 02:35:06;;;;;;;28.40;13.90;;;;;;;5.02;55.38;99747.42;25125;1315;3026892;-65
2022/03/26 02:37:35;;;;;;;30.50;16.60;;;;;;;4.94;55.73;99748.23;25098;1314;3027097;-63
2022/03/26 02:40:07;;;;;;;29.90;13.20;;;;;;;4.82;56.42;99750.85;25136;1314;3028142;-66
2022/03/26 02:42:37;;;;;;;33.10;16.50;;;;;;;4.81;56.46;99749.52;25140;1314;3027278;-65
2022/03/26 02:45:07;;;;;;;39.10;17.70;;;;;;;4.69;57.51;99748.48;25113;1315;3026495;-64
2022/03/26 02:47:37;;;;;;;40.80;17.30;;;;;;;4.63;58.05;99746.78;25179;1313;3026526;-64
2022/03/26 02:50:09;;;;;;;37.20;18.30;;;;;;;4.63;58.35;99745.23;25114;1315;3027281;-66
2022/03/26 02:52:39;;;;;;;32.30;17.30;;;;;;;4.65;58.35;99748.80;25101;1315;3026795;-65
2022/03/26 02:55:09;;;;;;;34.10;16.90;;;;;;;4.64;58.96;99744.86;25171;1315;3028962;-66
2022/03/26 02:57:38;;;;;;;33.20;15.80;;;;;;;4.61;59.10;99746.69;25106;1315;3055099;-63
2022/03/26 03:00:09;;;;;;;37.30;15.90;;;;;;;4.60;58.95;99742.88;25036;1315;3026575;-64
2022/03/26 03:02:38;;;;;;;34.90;15.90;;;;;;;4.59;59.20;99748.30;25081;1315;3028420;-63
2022/03/26 03:05:08;;;;;;;33.70;16.50;;;;;;;4.55;59.44;99752.93;25102;1315;3026404;-65
2022/03/26 03:07:39;;;;;;;34.00;16.60;;;;;;;4.57;59.25;99751.67;25115;1315;3027201;-64
2022/03/26 03:10:08;;;;;;;34.40;16.90;;;;;;;4.52;59.82;99746.42;25169;1315;3026870;-65
2022/03/26 03:12:58;;;;;;;34.20;17.10;;;;;;;4.49;59.99;99750.86;25095;1314;3052483;-66
2022/03/26 03:15:27;;;;;;;39.20;17.20;;;;;;;4.48;59.94;99747.24;25091;1314;3026486;-66
2022/03/26 03:18:04;;;;;;;35.50;17.50;;;;;;;4.46;60.44;99749.92;25079;1314;3054319;-63
2022/03/26 03:20:34;;;;;;;29.60;16.60;;;;;;;4.47;60.21;99751.95;25043;1315;3028776;-66
2022/03/26 03:23:06;;;;;;;32.90;16.30;;;;;;;4.49;60.00;99746.36;25136;1315;3027158;-64
2022/03/26 03:25:36;;;;;;;29.70;13.90;;;;;;;4.49;60.24;99756.09;25139;1315;3026999;-64
2022/03/26 03:28:05;;;;;;;26.00;14.90;;;;;;;4.55;59.86;99744.26;25171;1315;3026369;-66
2022/03/26 03:30:34;;;;;;;24.60;13.70;;;;;;;4.60;59.81;99741.15;25093;1315;3051016;-66
2022/03/26 03:33:04;;;;;;;36.60;16.80;;;;;;;4.53;60.35;99740.31;25112;1315;3028725;-66
2022/03/26 03:35:33;;;;;;;46.10;16.00;;;;;;;4.60;60.14;99740.65;25110;1315;3027186;-63
2022/03/26 03:38:02;;;;;;;24.10;14.30;;;;;;;4.65;59.88;99743.95;25133;1315;3026081;-65
2022/03/26 03:40:31;;;;;;;29.00;15.50;;;;;;;4.66;59.91;99739.06;25166;1315;3054318;-66
2022/03/26 03:43:00;;;;;;;27.00;14.70;;;;;;;4.66;59.75;99740.80;25099;1315;3026560;-67
2022/03/26 03:45:49;;;;;;;31.50;15.20;;;;;;;4.69;59.41;99735.66;25122;1314;3049127;-67
2022/03/26 03:48:19;;;;;;;38.00;17.40;;;;;;;4.65;59.51;99736.82;25179;1315;3026273;-64
2022/03/26 03:50:49;;;;;;;36.00;15.60;;;;;;;4.63;59.64;99739.48;25080;1314;3027659;-68
2022/03/26 03:53:20;;;;;;;30.50;15.60;;;;;;;4.61;59.46;99740.77;25131;1315;3026628;-64
2022/03/26 03:55:48;;;;;;;30.20;15.10;;;;;;;4.53;59.82;99735.11;25122;1314;3028451;-67
2022/03/26 03:58:17;;;;;;;32.10;16.50;;;;;;;4.55;59.72;99737.13;25109;1314;3050991;-68
2022/03/26 04:00:52;;;;;;;31.70;15.60;;;;;;;4.50;59.70;99743.91;25081;1314;3058717;-64
2022/03/26 04:03:22;;;;;;;32.80;16.10;;;;;;;4.41;60.06;99746.59;25074;1314;3026712;-64
2022/03/26 04:05:59;;;;;;;28.20;15.50;;;;;;;4.47;59.58;99739.12;25112;1315;3055952;-64
2022/03/26 04:08:28;;;;;;;31.20;15.90;;;;;;;4.45;59.83;99737.29;25114;1315;3028987;-64
2022/03/26 04:10:57;;;;;;;33.60;16.20;;;;;;;4.45;59.76;99737.80;25140;1315;3051713;-66
2022/03/26 04:13:26;;;;;;;35.20;16.90;;;;;;;4.45;59.85;99740.58;25144;1315;3026269;-65
2022/03/26 04:15:59;;;;;;;30.90;16.10;;;;;;;4.42;60.07;99739.98;25155;1315;3058709;-64
2022/03/26 04:18:28;;;;;;;27.40;13.70;;;;;;;4.46;60.03;99736.91;25108;1317;3026643;-68
2022/03/26 04:20:58;;;;;;;28.50;15.70;;;;;;;4.51;59.76;99743.50;25103;1315;3053248;-65
2022/03/26 04:23:27;;;;;;;32.00;15.80;;;;;;;4.55;59.56;99742.70;25164;1315;3026434;-65
2022/03/26 04:25:56;;;;;;;30.70;16.20;;;;;;;4.60;59.35;99744.27;25103;1315;3053956;-65
2022/03/26 04:28:25;;;;;;;27.60;15.50;;;;;;;4.65;59.09;99742.04;25147;1315;3025953;-66
2022/03/26 04:30:55;;;;;;;37.60;16.30;;;;;;;4.70;59.17;99742.41;25124;1315;3052228;-65
2022/03/26 04:33:24;;;;;;;28.60;15.70;;;;;;;4.68;59.12;99742.98;25101;1315;3026435;-64
2022/03/26 04:35:53;;;;;;;33.10;15.20;;;;;;;4.69;59.05;99751.47;25140;1314;3069300;-68
2022/03/26 04:38:22;;;;;;;35.40;17.00;;;;;;;4.68;59.12;99742.09;25800;1315;3026730;-67
2022/03/26 04:40:51;;;;;;;32.10;15.70;;;;;;;4.74;59.11;99737.93;25892;1315;3049433;-65
2022/03/26 04:43:23;;;;;;;27.10;15.90;;;;;;;4.83;58.73;99738.52;25659;1315;3026626;-66
2022/03/26 04:45:53;;;;;;;31.60;16.30;;;;;;;4.90;58.76;99741.41;25149;1315;3054657;-65
2022/03/26 04:48:22;;;;;;;28.00;15.60;;;;;;;4.94;58.37;99741.79;25122;1315;3026789;-65
2022/03/26 04:50:52;;;;;;;35.40;15.80;;;;;;;4.99;58.13;99740.77;25098;1315;3051691;-65
2022/03/26 04:53:21;;;;;;;27.20;15.20;;;;;;;5.09;57.94;99740.09;25140;1315;3027869;-64
2022/03/26 04:55:50;;;;;;;28.80;15.60;;;;;;;5.18;57.58;99742.56;25113;1315;3057545;-67
2022/03/26 04:58:19;;;;;;;30.20;15.10;;;;;;;5.18;57.31;99745.70;25131;1315;3027400;-65
2022/03/26 05:00:48;;;;;;;30.70;15.80;;;;;;;5.30;56.83;99745.64;25131;1315;3052524;-66
2022/03/26 05:03:17;;;;;;;30.70;15.70;;;;;;;5.34;56.63;99740.46;25137;1315;3026099;-69
2022/03/26 05:05:47;;;;;;;25.90;14.60;;;;;;;5.40;56.09;99737.64;25119;1312;3051878;-69
2022/03/26 05:08:16;;;;;;;28.80;14.70;;;;;;;5.43;55.92;99737.70;25152;1315;3028608;-68
2022/03/26 05:11:00;;;;;;;34.20;17.00;;;;;;;5.48;55.91;99736.48;25096;1315;3051383;-67
2022/03/26 05:13:29;;;;;;;30.50;15.00;;;;;;;5.52;55.85;99736.89;25130;1314;3026415;-65
2022/03/26 05:15:58;;;;;;;28.20;14.50;;;;;;;5.57;55.49;99737.23;25024;1314;3067677;-65
2022/03/26 05:18:27;;;;;;;33.50;14.30;;;;;;;5.65;55.38;99737.98;25154;1315;3026787;-65
2022/03/26 05:20:58;;;;;;;38.30;16.00;;;;;;;5.72;54.90;99741.73;25105;1316;3051200;-67
2022/03/26 05:23:26;;;;;;;37.00;15.80;;;;;;;5.77;54.78;99738.08;25097;1316;3026958;-67
2022/03/26 05:25:56;;;;;;;33.00;16.50;;;;;;;5.88;54.34;99734.89;25141;1314;3051504;-71
2022/03/26 05:28:25;;;;;;;42.10;16.30;;;;;;;5.91;54.19;99733.72;25156;1315;3026611;-66
2022/03/26 05:30:54;;;;;;;34.20;16.10;;;;;;;6.07;53.72;99730.75;25092;1315;3051694;-68
2022/03/26 05:33:23;;;;;;;34.20;15.70;;;;;;;6.18;53.22;99733.60;25200;1315;3026232;-66
2022/03/26 05:35:52;;;;;;;32.20;16.00;;;;;;;6.30;52.81;99737.86;25129;1314;3059407;-64
2022/03/26 05:38:22;;;;;;;30.00;15.10;;;;;;;6.37;52.61;99737.78;25115;1315;3026776;-67
2022/03/26 05:40:51;;;;;;;28.50;14.90;;;;;;;6.42;52.49;99737.58;25170;1315;3055101;-64
2022/03/26 05:43:20;;;;;;;33.20;14.40;;;;;;;6.47;52.04;99735.79;25117;1315;3027159;-65
2022/03/26 05:45:52;;;;;;;30.70;15.20;;;;;;;6.58;51.85;99739.04;25110;1315;3055392;-64
2022/03/26 05:48:21;;;;;;;32.70;13.30;;;;;;;6.67;51.44;99741.10;25182;1315;3026736;-68
2022/03/26 05:50:50;;;;;;;35.60;13.10;;;;;;;6.74;51.08;99740.29;25129;1315;3026611;-68
2022/03/26 05:53:19;;;;;;;29.80;14.70;;;;;;;6.79;50.77;99743.43;25122;1315;3051819;-67
2022/03/26 05:55:49;;;;;;;29.10;12.70;;;;;;;6.84;50.51;99743.58;25135;1315;3027082;-64
2022/03/26 05:58:18;;;;;;;21.10;11.90;;;;;;;6.94;50.24;99743.16;25079;1315;3026635;-69
2022/03/26 06:00:49;;;;;;;29.10;13.40;;;;;;;7.01;49.70;99744.42;25116;1314;3052666;-66
2022/03/26 06:03:18;;;;;;;29.50;12.30;;;;;;;7.13;49.33;99742.36;25120;1315;3026746;-66
2022/03/26 06:05:48;;;;;;;20.30;11.20;;;;;;;7.22;48.91;99744.61;25111;1317;3026090;-67
2022/03/26 06:08:17;;;;;;;26.10;11.30;;;;;;;7.33;48.35;99744.33;25158;1315;3026763;-67
2022/03/26 06:10:46;;;;;;;26.90;11.70;;;;;;;7.35;48.19;99745.44;25119;1315;3051307;-67
2022/03/26 06:13:15;;;;;;;20.80;11.00;;;;;;;7.34;48.00;99744.27;25152;1315;3026423;-68
2022/03/26 06:16:04;;;;;;;19.80;10.50;;;;;;;7.44;47.84;99744.88;25133;1315;3054274;-64
2022/03/26 06:18:34;;;;;;;22.80;10.50;;;;;;;7.52;47.49;99746.09;25096;1315;3026963;-68
2022/03/26 06:21:06;;;;;;;21.10;10.20;;;;;;;7.59;47.30;99745.27;25104;1314;3026176;-68
2022/03/26 06:23:35;;;;;;;19.50;10.10;;;;;;;7.69;47.21;99738.76;25103;1315;3027419;-64
2022/03/26 06:26:04;;;;;;;21.90;10.50;;;;;;;7.81;46.79;99736.48;25118;1314;3026727;-67
2022/03/26 06:28:34;;;;;;;19.20;10.60;;;;;;;7.89;46.65;99734.89;25140;1315;3057957;-64
2022/03/26 06:31:04;;;;;;;21.10;10.00;;;;;;;7.94;46.21;99730.83;25079;1315;3028817;-67
2022/03/26 06:33:33;;;;;;;20.00;10.40;;;;;;;8.00;46.08;99734.05;25145;1315;3026408;-67
2022/03/26 06:36:03;;;;;;;22.60;10.20;;;;;;;8.10;45.88;99725.73;25079;1318;3058538;-69
2022/03/26 06:38:38;;;;;;;22.60;10.70;;;;;;;8.21;45.79;99730.12;25151;1318;3026769;-67
2022/03/26 06:41:09;;;;;;;24.80;10.10;;;;;;;8.30;45.30;99724.81;25143;1318;3056272;-68
2022/03/26 06:43:39;;;;;;;23.60;10.00;;;;;;;8.42;44.88;99720.94;25153;1315;3026013;-63
2022/03/26 06:46:08;;;;;;;18.10;10.00;;;;;;;8.47;44.67;99730.33;25086;1318;3026497;-67
2022/03/26 06:48:37;;;;;;;33.70;12.30;;;;;;;8.54;44.51;99732.97;25169;1315;3026637;-66
2022/03/26 06:51:08;;;;;;;19.80;10.20;;;;;;;8.58;44.09;99723.52;25151;1315;3053989;-65
2022/03/26 06:53:37;;;;;;;28.40;11.70;;;;;;;8.66;43.71;99725.59;25109;1315;3027183;-66
2022/03/26 06:56:07;;;;;;;32.10;12.70;;;;;;;8.83;43.73;99722.48;25159;1315;3026192;-66
2022/03/26 06:58:36;;;;;;;22.50;12.20;;;;;;;8.92;43.14;99728.84;25121;1315;3026457;-66
2022/03/26 07:01:06;;;;;;;30.50;11.90;;;;;;;9.04;42.50;99721.47;25136;1315;3068773;-68
2022/03/26 07:03:35;;;;;;;52.00;19.70;;;;;;;9.17;43.31;99721.50;25195;1318;3027535;-67
2022/03/26 07:06:05;;;;;;;52.00;19.70;;;;;;;9.22;43.87;99727.89;25148;1315;3053461;-66
2022/03/26 07:08:34;;;;;;;44.20;17.80;;;;;;;9.32;43.44;99720.04;25136;1318;3026729;-65
2022/03/26 07:11:03;;;;;;;36.30;16.40;;;;;;;9.42;43.41;99719.70;25128;1315;3028265;-67
2022/03/26 07:13:32;;;;;;;36.80;17.10;;;;;;;9.46;43.14;99717.20;25134;1315;3049941;-67
2022/03/26 07:16:03;;;;;;;29.60;15.60;;;;;;;9.52;43.25;99710.95;25155;1314;3027122;-67
2022/03/26 07:18:32;;;;;;;36.30;15.50;;;;;;;9.63;42.55;99706.00;25128;1315;3026750;-64
2022/03/26 07:21:02;;;;;;;40.60;16.90;;;;;;;9.70;42.56;99702.14;25107;1315;3027009;-66
2022/03/26 07:23:31;;;;;;;37.10;14.30;;;;;;;9.65;42.57;99702.75;25132;1315;3028414;-63
2022/03/26 07:26:01;;;;;;;22.00;11.60;;;;;;;9.71;42.71;99703.50;25129;1315;3026901;-67
2022/03/26 07:28:30;;;;;;;24.40;11.50;;;;;;;9.72;42.63;99708.52;25126;1315;3026648;-67
2022/03/26 07:31:00;;;;;;;25.90;11.10;;;;;;;9.70;42.73;99700.08;25145;1315;3026479;-66
2022/03/26 07:33:30;;;;;;;26.80;11.40;;;;;;;9.74;42.63;99705.95;25056;1317;3026392;-66
2022/03/26 07:36:04;;;;;;;26.80;13.30;;;;;;;9.85;42.74;99696.09;25110;1315;3070984;-66
2022/03/26 07:38:33;;;;;;;27.10;12.50;;;;;;;9.90;42.63;99690.78;25101;1315;3027714;-65
2022/03/26 07:41:03;;;;;;;26.80;12.20;;;;;;;10.03;42.40;99685.70;25136;1315;3026087;-64
2022/03/26 07:43:32;;;;;;;18.10;9.30;;;;;;;10.04;42.29;99695.60;25109;1315;3069771;-65
2022/03/26 07:46:03;;;;;;;13.50;7.60;;;;;;;10.06;41.47;99692.52;25139;1315;3026592;-66
2022/03/26 07:48:32;;;;;;;20.50;8.70;;;;;;;10.10;41.41;99681.08;25118;1315;3026633;-63
2022/03/26 07:51:01;;;;;;;20.10;8.40;;;;;;;10.19;40.79;99680.27;25064;1318;3069332;-64
2022/03/26 07:53:30;;;;;;;15.60;7.70;;;;;;;10.16;40.41;99671.68;25114;1315;3026634;-64
2022/03/26 07:56:01;;;;;;;18.00;8.60;;;;;;;10.09;40.30;99656.83;25137;1315;3053345;-67
2022/03/26 07:58:30;;;;;;;13.60;7.40;;;;;;;10.28;40.00;99651.75;25103;1315;3028274;-67
2022/03/26 08:00:59;;;;;;;19.60;9.00;;;;;;;10.08;39.76;99670.02;25133;1315;3052256;-64
2022/03/26 08:03:29;;;;;;;20.60;8.80;;;;;;;10.14;39.78;99656.71;25152;1315;3026477;-64
2022/03/26 08:05:59;;;;;;;26.60;9.20;;;;;;;10.24;39.67;99637.08;25136;1315;3026656;-66
2022/03/26 08:08:28;;;;;;;18.50;7.60;;;;;;;10.29;39.63;99646.63;25104;1315;3030074;-63
2022/03/26 08:10:57;;;;;;;18.40;8.70;;;;;;;10.31;39.49;99629.88;25169;1315;3055103;-66
2022/03/26 08:13:27;;;;;;;15.30;6.80;;;;;;;10.29;39.41;99630.69;25136;1315;3026543;-67
2022/03/26 08:16:00;;;;;;;17.40;8.60;;;;;;;10.43;38.87;99629.90;25112;1315;3029401;-66
2022/03/26 08:18:30;;;;;;;14.40;8.80;;;;;;;10.54;38.67;99610.52;25082;1315;3027232;-65
2022/03/26 08:21:00;;;;;;;19.90;7.70;;;;;;;10.70;38.55;99601.20;25117;1315;3026045;-65
2022/03/26 08:23:29;;;;;;;19.10;8.60;;;;;;;10.71;38.09;99605.34;25161;1315;3026044;-67
2022/03/26 08:28:46;;;;;;;21.20;8.20;;;;;;;10.70;38.14;99615.38;25150;1315;3052762;-66
2022/03/26 08:31:17;;;;;;;15.40;7.40;;;;;;;10.68;38.47;99603.94;25165;1315;3026445;-64
2022/03/26 08:33:47;;;;;;;14.80;7.90;;;;;;;10.69;38.36;99584.63;25135;1315;3026998;-63
2022/03/26 08:36:17;;;;;;;22.10;7.40;;;;;;;10.74;37.72;99577.48;25194;1315;3028662;-66
2022/03/26 08:38:47;;;;;;;11.70;6.70;;;;;;;10.97;37.15;99588.36;25565;1315;3026318;-65
2022/03/26 08:41:19;;;;;;;17.60;8.00;;;;;;;11.00;36.32;99589.42;25632;1315;3049808;-66
2022/03/26 08:43:50;;;;;;;10.70;5.30;;;;;;;10.98;35.43;99581.69;25336;1315;3030605;-66
2022/03/26 08:46:19;;;;;;;15.70;7.00;;;;;;;11.06;35.10;99580.52;25140;1315;3026110;-67
2022/03/26 08:48:49;;;;;;;23.60;7.00;;;;;;;11.21;34.88;99581.36;25121;1315;3026748;-67
2022/03/26 08:51:19;;;;;;;12.60;6.90;;;;;;;11.29;34.31;99585.23;25216;1315;3054699;-63
2022/03/26 08:53:48;;;;;;;32.70;8.30;;;;;;;11.34;34.30;99582.50;25104;1315;3027331;-66
2022/03/26 08:56:17;;;;;;;27.30;8.00;;;;;;;11.46;33.98;99569.27;25088;1315;3051254;-67
2022/03/26 08:58:46;;;;;;;33.30;9.40;;;;;;;11.51;34.24;99569.85;25156;1315;3030317;-67
2022/03/26 09:01:15;;;;;;;17.00;8.00;;;;;;;11.43;34.56;99568.39;25164;1314;3056467;-68
2022/03/26 09:03:44;;;;;;;18.40;8.60;;;;;;;11.48;34.73;99562.98;25142;1315;3026439;-66
2022/03/26 09:06:15;;;;;;;18.30;7.30;;;;;;;11.55;34.91;99572.05;25163;1315;3052062;-69
2022/03/26 09:08:44;;;;;;;23.90;10.00;;;;;;;11.60;35.40;99563.34;25076;1315;3026503;-66
2022/03/26 09:11:14;;;;;;;29.30;9.80;;;;;;;11.51;35.73;99552.33;25094;1315;3027323;-65
2022/03/26 09:13:45;;;;;;;31.50;10.30;;;;;;;11.58;35.52;99549.23;25129;1315;3026390;-68
2022/03/26 09:16:23;;;;;;;28.10;10.60;;;;;;;11.80;34.92;99550.47;25165;1315;3053061;-67
2022/03/26 09:18:52;;;;;;;26.80;10.60;;;;;;;11.90;34.99;99550.54;25105;1315;3026487;-67
2022/03/26 09:21:21;;;;;;;21.20;10.00;;;;;;;11.98;35.10;99558.77;25195;1315;3052776;-67
2022/03/26 09:23:50;;;;;;;28.40;10.30;;;;;;;11.83;35.56;99562.17;25130;1314;3026408;-67
2022/03/26 09:26:20;;;;;;;28.40;10.90;;;;;;;11.83;35.38;99550.45;25131;1315;3051782;-67
2022/03/26 09:28:49;;;;;;;24.40;10.50;;;;;;;11.81;35.22;99540.54;25119;1315;3026458;-65
2022/03/26 09:31:19;;;;;;;36.80;11.70;;;;;;;11.85;34.98;99553.81;25151;1314;3057975;-66
2022/03/26 09:33:49;;;;;;;23.00;10.90;;;;;;;11.88;34.98;99529.63;25141;1315;3027609;-67
2022/03/26 09:36:19;;;;;;;25.50;13.80;;;;;;;12.10;34.74;99525.77;25144;1315;3051960;-65
2022/03/26 09:38:48;;;;;;;26.60;12.60;;;;;;;12.25;34.70;99517.92;25138;1315;3026231;-67
2022/03/26 09:41:17;;;;;;;24.70;11.60;;;;;;;12.33;34.81;99510.90;25146;1314;3029961;-68
2022/03/26 09:43:46;;;;;;;31.60;12.60;;;;;;;12.32;34.93;99504.06;25114;1315;3052363;-67
2022/03/26 09:46:15;;;;;;;31.40;13.40;;;;;;;12.35;34.95;99492.48;25110;1317;3027136;-67
2022/03/26 09:48:45;;;;;;;33.20;13.20;;;;;;;12.46;34.62;99493.48;25170;1315;3054436;-67
2022/03/26 09:51:15;;;;;;;30.00;12.90;;;;;;;12.47;34.64;99482.19;25092;1315;3026419;-66
2022/03/26 09:53:44;;;;;;;22.30;11.40;;;;;;;12.67;34.43;99479.90;25121;1315;3027012;-67
2022/03/26 09:56:13;;;;;;;27.80;10.50;;;;;;;12.70;34.02;99489.20;25092;1315;3026423;-65
2022/03/26 09:58:42;;;;;;;31.60;11.10;;;;;;;12.55;34.00;99488.67;25086;1315;3028213;-65
2022/03/26 10:01:11;;;;;;;30.80;12.20;;;;;;;12.54;34.00;99478.21;25146;1315;3055627;-66
2022/03/26 10:03:41;;;;;;;32.70;12.70;;;;;;;12.63;33.88;99474.08;25087;1315;3026257;-65
2022/03/26 10:06:10;;;;;;;26.80;10.20;;;;;;;12.70;33.98;99457.90;25140;1314;3053088;-65
2022/03/26 10:08:40;;;;;;;26.20;10.60;;;;;;;12.68;33.70;99463.88;25100;1315;3026518;-64
2022/03/26 10:11:19;;;;;;;36.60;11.00;;;;;;;12.74;33.26;99452.54;25160;1315;3026663;-66
2022/03/26 10:13:48;;;;;;;28.80;10.70;;;;;;;12.85;32.77;99446.88;25134;1315;3054116;-65
2022/03/26 10:16:18;;;;;;;20.10;9.60;;;;;;;13.00;32.49;99437.58;25131;1315;3026389;-66
2022/03/26 10:18:48;;;;;;;31.10;9.50;;;;;;;13.00;32.40;99434.02;25121;1314;3049862;-67
2022/03/26 10:21:20;;;;;;;24.60;10.10;;;;;;;13.26;32.63;99421.98;25145;1315;3027647;-65
2022/03/26 10:23:51;;;;;;;24.70;9.60;;;;;;;13.37;32.48;99436.69;25122;1315;3057492;-66
2022/03/26 10:26:24;;;;;;;21.40;8.50;;;;;;;13.31;32.30;99421.97;25128;1315;3026574;-64
2022/03/26 10:29:04;;;;;;;18.70;8.60;;;;;;;13.28;32.68;99420.81;25128;1315;3053341;-65
2022/03/26 10:34:38;;;;;;;22.60;8.80;;;;;;;13.33;32.62;99412.38;24917;1320;3072279;-65
2022/03/26 10:37:07;;;;;;;14.60;7.50;;;;;;;13.39;32.29;99408.60;25120;1315;3026276;-64
2022/03/26 10:39:37;;;;;;;19.60;8.40;;;;;;;13.35;31.63;99384.25;25185;1315;3054299;-67
2022/03/26 10:42:06;;;;;;;29.90;10.10;;;;;;;13.52;31.68;99381.05;25137;1315;3026274;-66
2022/03/26 10:44:35;;;;;;;17.10;9.10;;;;;;;13.71;31.43;99373.30;25129;1314;3026386;-65
2022/03/26 10:47:05;;;;;;;20.40;9.70;;;;;;;13.72;31.28;99381.37;25150;1315;3053799;-65
2022/03/26 10:49:37;;;;;;;27.80;9.40;;;;;;;13.83;31.65;99385.27;25109;1315;3026419;-65
2022/03/26 10:52:14;;;;;;;17.20;9.40;;;;;;;13.89;31.22;99374.29;25131;1315;3026602;-65
2022/03/26 10:54:43;;;;;;;18.70;9.30;;;;;;;13.69;31.72;99364.14;25163;1315;3052280;-67
2022/03/26 10:57:12;;;;;;;55.60;10.60;;;;;;;13.63;31.75;99356.64;25048;1318;3026659;-65
2022/03/26 10:59:41;;;;;;;46.10;11.10;;;;;;;13.89;31.52;99337.45;25133;1315;3028387;-64
2022/03/26 11:02:10;;;;;;;27.20;9.50;;;;;;;13.93;31.08;99357.06;25106;1314;3054901;-66
2022/03/26 11:04:41;;;;;;;23.80;8.70;;;;;;;14.04;30.82;99345.13;25179;1315;3028329;-66
2022/03/26 11:07:11;;;;;;;27.10;10.50;;;;;;;14.11;31.07;99317.45;25124;1315;3028356;-68
2022/03/26 11:09:41;;;;;;;21.50;9.40;;;;;;;14.34;30.43;99314.98;25147;1315;3052268;-68
2022/03/26 11:12:11;;;;;;;27.30;9.70;;;;;;;14.45;29.67;99317.84;25122;1316;3025900;-66
2022/03/26 11:14:40;;;;;;;19.20;7.60;;;;;;;14.29;29.70;99318.02;25073;1315;3029547;-67
2022/03/26 11:17:13;;;;;;;20.40;7.90;;;;;;;14.39;29.33;99303.64;24992;1314;3026701;-65
2022/03/26 11:20:07;;;;;;;21.40;9.90;;;;;;;14.48;29.39;99290.31;25118;1315;3026308;-66
2022/03/26 11:23:02;;;;;;;29.90;9.80;;;;;;;14.66;29.25;99303.32;25156;1315;3052757;-65
2022/03/26 11:25:36;;;;;;;33.50;9.80;;;;;;;14.50;28.72;99318.29;25131;1315;3071382;-66
2022/03/26 11:28:29;;;;;;;45.00;10.00;;;;;;;14.26;29.12;99288.44;25104;1314;3050432;-69
2022/03/26 11:31:09;;;;;;;25.70;9.00;;;;;;;14.49;28.81;99304.77;25146;1315;3052120;-67